Log in

Login to your account

Username *
Password *
Remember Me
C'est avec un grand plaisir que nous venons de réceptionner à l'Aéroclub de Savoie conjointement avec le CLAP et avec l'aide de la FFA un avion électrique Pipistrel VELIS !!
C'est parti pour des vols silencieux et sans essence !
 
Les vols de découverte et le début de formation sur cet avion novateur sont possibles !
 
 
 
20220301 170826
 

Nous contacter

 Téléphone : +33 (0)4 79 54 41 81

NOTRE LIGNE TELEPHONIQUE EST HORS SERVICE. POUR JOINDRE LE SECRETARIAT MERCI DE COMPOSER LE 07 68 81 20 63.

Coordonnées détaillées et accès : cliquez ici

facebook 770688 960 720  logo instagram large

[source: ADDS]
METAR / TAF
LFLB 011500Z AUTO 19011KT 160V260 5000 -RA BR SCT008 SCT015 BKN023 12/11 Q1022 NOSIG =
TAF LFLB 011400Z 0115/0215 19008KT 9999 FEW009 BKN030 TEMPO 0115/0123 6000 -RA PROB30 TEMPO 0123/0206 1500 BCFG BECMG 0208/0210 34005KT

SR / SS: 05:34 / 17:17 UTC (Lever/Coucher du soleil le 2022-10-01)
JSN Boot template designed by JoomlaShine.com